createdAt,value
2018-11-26T00:00:22.523Z,64.40
2018-11-26T00:02:50.977Z,64.30
2018-11-26T00:05:19.909Z,64.30
2018-11-26T00:07:48.262Z,64.50
2018-11-26T00:11:25.196Z,64.50
2018-11-26T00:13:53.502Z,64.40
2018-11-26T00:16:21.839Z,64.70
2018-11-26T00:18:50.193Z,64.40
2018-11-26T00:21:18.568Z,64.20
2018-11-26T00:23:46.949Z,64.70
2018-11-26T00:26:15.422Z,63.80
2018-11-26T00:28:43.794Z,62.40
2018-11-26T00:31:12.205Z,62.20
2018-11-26T00:33:40.637Z,62.00
2018-11-26T00:36:09.027Z,61.70
2018-11-26T00:38:37.500Z,61.50
2018-11-26T00:41:06.331Z,61.00
2018-11-26T00:43:34.673Z,61.50
2018-11-26T00:46:03.060Z,62.20
2018-11-26T00:48:31.380Z,62.20
2018-11-26T00:50:59.688Z,62.40
2018-11-26T00:53:28.014Z,62.30
2018-11-26T00:55:56.349Z,62.20
2018-11-26T00:58:24.706Z,62.00
2018-11-26T01:00:53.029Z,61.90
2018-11-26T01:03:21.470Z,61.90
2018-11-26T01:05:49.779Z,61.90
2018-11-26T01:08:18.499Z,61.40
2018-11-26T01:10:46.779Z,60.90
2018-11-26T01:13:15.178Z,61.30
2018-11-26T01:15:43.581Z,61.20
2018-11-26T01:18:11.932Z,60.90
2018-11-26T01:20:40.249Z,60.90
2018-11-26T01:23:08.848Z,61.00
2018-11-26T01:25:38.329Z,60.80
2018-11-26T01:28:06.984Z,60.80
2018-11-26T01:30:35.844Z,60.30
2018-11-26T01:33:04.194Z,61.00
2018-11-26T01:35:32.580Z,60.80
2018-11-26T01:38:00.895Z,61.00
2018-11-26T01:40:34.590Z,61.00
2018-11-26T01:43:02.982Z,61.20
2018-11-26T01:45:31.330Z,61.10
2018-11-26T01:48:00.281Z,61.00
2018-11-26T01:50:28.609Z,60.80
2018-11-26T01:52:57.014Z,60.70
2018-11-26T01:55:25.338Z,60.90
2018-11-26T01:57:53.698Z,60.80
2018-11-26T02:00:24.008Z,60.90
2018-11-26T02:02:52.872Z,60.80
2018-11-26T02:05:21.288Z,61.10
2018-11-26T02:07:49.732Z,61.40
2018-11-26T02:10:19.233Z,61.60
2018-11-26T02:12:47.624Z,61.70
2018-11-26T02:15:26.521Z,61.70
2018-11-26T02:17:55.061Z,62.20
2018-11-26T02:20:23.395Z,61.90
2018-11-26T02:22:51.762Z,61.90
2018-11-26T02:25:20.069Z,61.80
2018-11-26T02:27:48.428Z,61.80
2018-11-26T02:30:16.866Z,62.10
2018-11-26T02:32:45.246Z,62.20
2018-11-26T02:35:14.171Z,62.20
2018-11-26T02:37:42.582Z,62.20
2018-11-26T02:40:13.170Z,62.20
2018-11-26T02:42:41.593Z,62.10
2018-11-26T02:45:09.888Z,62.30
2018-11-26T02:47:38.278Z,62.50
2018-11-26T02:50:06.642Z,62.50
2018-11-26T02:52:34.972Z,62.50
2018-11-26T02:55:03.341Z,62.50
2018-11-26T02:57:31.690Z,62.60
2018-11-26T03:00:00.001Z,62.70
2018-11-26T03:02:28.291Z,62.90
2018-11-26T03:04:56.752Z,63.00
2018-11-26T03:07:25.202Z,63.10
2018-11-26T03:09:53.595Z,63.10
2018-11-26T03:12:21.878Z,63.20
2018-11-26T03:14:50.155Z,63.30
2018-11-26T03:17:18.589Z,63.40
2018-11-26T03:19:47.032Z,63.80
2018-11-26T03:22:15.368Z,63.30
2018-11-26T03:24:43.865Z,63.60
2018-11-26T03:27:12.229Z,63.20
2018-11-26T03:29:40.642Z,63.30
2018-11-26T03:32:09.010Z,63.40
2018-11-26T03:34:37.413Z,63.30
2018-11-26T03:37:06.340Z,63.40
2018-11-26T03:39:34.904Z,63.30
2018-11-26T03:42:03.284Z,63.10
2018-11-26T03:44:31.771Z,63.40
2018-11-26T03:47:00.345Z,63.00
2018-11-26T03:49:28.879Z,62.80
2018-11-26T03:51:57.230Z,62.80
2018-11-26T03:54:25.638Z,62.60
2018-11-26T03:56:54.016Z,62.50
2018-11-26T03:59:22.479Z,62.40
2018-11-26T04:01:50.906Z,62.20
2018-11-26T04:04:19.251Z,62.40
2018-11-26T04:06:48.740Z,62.20
2018-11-26T04:09:17.230Z,62.20
2018-11-26T04:11:45.731Z,62.20
2018-11-26T04:14:14.093Z,62.20
2018-11-26T04:16:42.539Z,62.30
2018-11-26T04:19:11.171Z,62.00
2018-11-26T04:21:39.607Z,62.00
2018-11-26T04:24:07.959Z,62.10
2018-11-26T04:26:36.261Z,61.90
2018-11-26T04:29:04.584Z,61.80
2018-11-26T04:31:33.272Z,61.60
2018-11-26T04:34:01.652Z,61.70
2018-11-26T04:36:29.974Z,61.50
2018-11-26T04:38:58.496Z,61.20
2018-11-26T04:41:26.874Z,61.20
2018-11-26T04:43:55.251Z,61.40
2018-11-26T04:46:23.554Z,61.30
2018-11-26T04:48:52.384Z,61.30
2018-11-26T04:51:20.683Z,61.20
2018-11-26T04:53:48.988Z,61.10
2018-11-26T04:56:17.376Z,61.10
2018-11-26T04:58:45.724Z,61.10
2018-11-26T05:01:14.166Z,61.30
2018-11-26T05:03:42.620Z,61.20
2018-11-26T05:06:10.969Z,61.20
2018-11-26T05:08:39.325Z,61.10
2018-11-26T05:11:08.038Z,61.10
2018-11-26T05:13:36.772Z,61.40
2018-11-26T05:16:05.264Z,61.50
2018-11-26T05:18:33.595Z,61.60
2018-11-26T05:21:01.956Z,61.70
2018-11-26T05:23:30.447Z,61.80
2018-11-26T05:25:58.856Z,62.00
2018-11-26T05:28:27.484Z,61.90
2018-11-26T05:30:55.883Z,62.10
2018-11-26T05:33:24.402Z,62.20
2018-11-26T05:35:52.820Z,62.10
2018-11-26T05:38:21.321Z,61.90
2018-11-26T05:40:49.692Z,61.70
2018-11-26T05:43:18.021Z,61.60
2018-11-26T05:45:46.399Z,61.20
2018-11-26T05:48:14.727Z,61.10
2018-11-26T05:50:43.112Z,60.90
2018-11-26T05:53:11.614Z,60.80
2018-11-26T05:55:40.386Z,60.70
2018-11-26T05:58:08.849Z,60.80
2018-11-26T06:00:37.352Z,60.60
2018-11-26T06:03:06.476Z,60.10
2018-11-26T06:05:34.846Z,60.50
2018-11-26T06:08:03.147Z,59.70
2018-11-26T06:10:31.447Z,60.00
2018-11-26T06:12:59.787Z,60.00
2018-11-26T06:15:28.127Z,60.20
2018-11-26T06:17:56.484Z,60.00
2018-11-26T06:20:24.814Z,60.40
2018-11-26T06:22:53.188Z,60.50
2018-11-26T06:25:22.169Z,60.40
2018-11-26T06:27:50.537Z,60.60
2018-11-26T06:30:19.616Z,60.50
2018-11-26T06:32:48.008Z,60.70
2018-11-26T06:35:19.298Z,60.70
2018-11-26T06:37:47.669Z,60.80
2018-11-26T06:40:16.127Z,61.00
2018-11-26T06:42:44.753Z,61.10
2018-11-26T06:45:15.588Z,61.10
2018-11-26T06:47:44.225Z,61.20
2018-11-26T06:50:13.678Z,61.90
2018-11-26T06:52:42.151Z,61.10
2018-11-26T06:55:11.955Z,61.40
2018-11-26T06:57:40.474Z,61.50
2018-11-26T07:00:12.570Z,61.40
2018-11-26T07:02:41.203Z,61.00
2018-11-26T07:05:11.721Z,61.00
2018-11-26T07:07:40.225Z,61.00
2018-11-26T07:10:09.790Z,61.00
2018-11-26T07:12:38.372Z,61.40
2018-11-26T07:15:10.563Z,61.10
2018-11-26T07:17:39.400Z,61.10
2018-11-26T07:20:17.072Z,61.30
2018-11-26T07:22:46.712Z,61.30
2018-11-26T07:25:16.292Z,61.50
2018-11-26T07:27:47.708Z,62.10
2018-11-26T07:30:19.419Z,62.30
2018-11-26T07:32:47.935Z,61.90
2018-11-26T07:35:17.788Z,61.90
2018-11-26T07:37:46.203Z,62.00
2018-11-26T07:40:18.188Z,62.10
2018-11-26T07:42:52.266Z,61.90
2018-11-26T07:45:20.671Z,61.80
2018-11-26T07:47:49.040Z,61.80
2018-11-26T07:50:17.736Z,61.60
2018-11-26T07:52:46.083Z,61.50
2018-11-26T07:55:16.788Z,61.20
2018-11-26T07:57:45.213Z,61.20
2018-11-26T08:00:16.524Z,61.10
2018-11-26T08:02:45.620Z,61.00
2018-11-26T08:05:18.840Z,60.70
2018-11-26T08:07:47.301Z,61.20
2018-11-26T08:10:17.800Z,61.40
2018-11-26T08:12:47.179Z,61.30
2018-11-26T08:15:22.545Z,61.00
2018-11-26T08:17:50.743Z,61.10
2018-11-26T08:20:19.382Z,61.60
2018-11-26T08:22:47.910Z,60.80
2018-11-26T08:25:18.002Z,60.80
2018-11-26T08:27:47.408Z,60.80
2018-11-26T08:30:16.691Z,60.70
2018-11-26T08:32:46.284Z,60.70
2018-11-26T08:35:15.663Z,60.90
2018-11-26T08:37:49.596Z,60.20
2018-11-26T08:40:23.443Z,60.10
2018-11-26T08:42:57.106Z,60.30
2018-11-26T08:45:30.863Z,60.00
2018-11-26T08:48:04.336Z,60.00
2018-11-26T08:50:32.751Z,60.00
2018-11-26T08:53:01.051Z,59.70
2018-11-26T08:55:29.498Z,59.60
2018-11-26T08:57:57.816Z,59.50
2018-11-26T09:00:26.248Z,58.40
2018-11-26T09:02:55.421Z,58.50
2018-11-26T09:05:29.179Z,58.50
2018-11-26T09:07:57.485Z,58.30
2018-11-26T09:10:25.786Z,58.20
2018-11-26T09:12:54.203Z,58.20
2018-11-26T09:15:22.825Z,57.90
2018-11-26T09:17:51.181Z,58.10
2018-11-26T09:20:19.684Z,58.30
2018-11-26T09:22:48.073Z,58.20
2018-11-26T09:25:16.436Z,58.10
2018-11-26T09:27:44.819Z,58.10
2018-11-26T09:30:14.141Z,58.10
2018-11-26T09:32:43.035Z,57.90
2018-11-26T09:35:13.095Z,57.90
2018-11-26T09:37:41.504Z,58.20
2018-11-26T09:40:11.848Z,58.20
2018-11-26T09:42:40.307Z,58.10
2018-11-26T09:45:12.557Z,57.90
2018-11-26T09:47:40.896Z,58.10
2018-11-26T09:50:19.800Z,57.40
2018-11-26T09:52:48.154Z,58.20
2018-11-26T09:55:17.116Z,57.90
2018-11-26T09:57:45.443Z,58.10
2018-11-26T10:00:17.931Z,58.10
2018-11-26T10:02:47.391Z,58.20
2018-11-26T10:05:24.747Z,57.90
2018-11-26T10:07:53.337Z,57.60
2018-11-26T10:10:21.755Z,57.70
2018-11-26T10:12:50.124Z,57.50
2018-11-26T10:15:19.767Z,57.70
2018-11-26T10:17:48.292Z,57.10
2018-11-26T10:20:16.667Z,56.80
2018-11-26T10:22:45.702Z,56.70
2018-11-26T10:25:15.296Z,56.90
2018-11-26T10:27:44.067Z,57.30
2018-11-26T10:30:13.660Z,56.60
2018-11-26T10:32:42.680Z,56.60
2018-11-26T10:35:12.974Z,56.70
2018-11-26T10:37:41.574Z,56.60
2018-11-26T10:40:18.023Z,56.90
2018-11-26T10:42:46.560Z,57.50
2018-11-26T10:45:17.236Z,57.30
2018-11-26T10:47:45.699Z,57.90
2018-11-26T10:50:16.170Z,57.40
2018-11-26T10:52:47.072Z,58.20
2018-11-26T10:55:25.464Z,59.00
2018-11-26T10:57:53.950Z,58.50
2018-11-26T11:00:28.324Z,57.70
2018-11-26T11:02:57.925Z,57.40
2018-11-26T11:05:28.648Z,57.50
2018-11-26T11:07:57.133Z,57.20
2018-11-26T11:10:27.981Z,57.70
2018-11-26T11:12:56.698Z,57.50
2018-11-26T11:15:26.415Z,57.30
2018-11-26T11:17:55.029Z,57.20
2018-11-26T11:20:26.483Z,57.10
2018-11-26T11:22:54.986Z,57.30
2018-11-26T11:25:23.966Z,56.60
2018-11-26T11:27:52.991Z,57.00
2018-11-26T11:30:30.888Z,57.00
2018-11-26T11:32:59.219Z,56.90
2018-11-26T11:35:28.678Z,56.50
2018-11-26T11:37:57.365Z,56.60
2018-11-26T11:40:27.501Z,56.40
2018-11-26T11:42:56.833Z,57.00
2018-11-26T11:45:27.187Z,57.10
2018-11-26T11:47:59.014Z,56.90
2018-11-26T11:50:27.501Z,56.80
2018-11-26T11:52:55.944Z,57.30
2018-11-26T11:55:25.781Z,57.40
2018-11-26T11:57:54.114Z,57.40
2018-11-26T12:00:29.904Z,56.70
2018-11-26T12:02:58.646Z,56.90
2018-11-26T12:05:27.008Z,57.00
2018-11-26T12:07:55.375Z,56.60
2018-11-26T12:10:23.654Z,56.90
2018-11-26T12:12:51.953Z,57.40
2018-11-26T12:15:20.406Z,57.00
2018-11-26T12:17:49.204Z,57.30
2018-11-26T12:20:17.617Z,57.10
2018-11-26T12:22:46.538Z,57.30
2018-11-26T12:25:19.038Z,57.20
2018-11-26T12:27:47.528Z,58.50
2018-11-26T12:30:18.221Z,58.90
2018-11-26T12:32:46.786Z,57.60
2018-11-26T12:35:15.245Z,57.30
2018-11-26T12:37:43.685Z,57.10
2018-11-26T12:40:14.415Z,56.80
2018-11-26T12:42:42.795Z,56.70
2018-11-26T12:45:29.589Z,57.20
2018-11-26T12:47:58.044Z,57.30
2018-11-26T12:50:26.428Z,57.30
2018-11-26T12:52:54.825Z,56.90
2018-11-26T12:55:23.961Z,56.70
2018-11-26T12:57:53.138Z,56.00
2018-11-26T13:00:24.762Z,56.20
2018-11-26T13:02:54.278Z,56.70
2018-11-26T13:05:22.828Z,56.60
2018-11-26T13:07:51.652Z,56.30
2018-11-26T13:10:21.191Z,56.40
2018-11-26T13:12:50.092Z,56.20
2018-11-26T13:15:22.484Z,56.20
2018-11-26T13:17:50.803Z,56.10
2018-11-26T13:20:21.791Z,56.10
2018-11-26T13:22:50.721Z,55.70
2018-11-26T13:25:21.500Z,55.80
2018-11-26T13:27:52.373Z,55.30
2018-11-26T13:30:27.639Z,55.30
2018-11-26T13:32:57.283Z,55.10
2018-11-26T13:35:25.625Z,55.20
2018-11-26T13:37:54.073Z,54.80
2018-11-26T13:40:22.733Z,55.20
2018-11-26T13:42:51.581Z,55.40
2018-11-26T13:45:24.269Z,54.80
2018-11-26T13:47:52.734Z,54.70
2018-11-26T13:50:23.388Z,55.30
2018-11-26T13:52:51.830Z,55.50
2018-11-26T13:55:20.353Z,55.50
2018-11-26T13:57:48.684Z,55.30
2018-11-26T14:00:17.463Z,55.40
2018-11-26T14:02:45.863Z,55.60
2018-11-26T14:05:15.428Z,55.50
2018-11-26T14:07:44.357Z,55.40
2018-11-26T14:10:20.724Z,55.30
2018-11-26T14:12:52.054Z,55.40
2018-11-26T14:15:20.530Z,55.50
2018-11-26T14:17:48.947Z,55.20
2018-11-26T14:20:17.376Z,55.20
2018-11-26T14:22:45.803Z,55.40
2018-11-26T14:25:17.270Z,56.00
2018-11-26T14:27:46.025Z,55.60
2018-11-26T14:30:16.947Z,55.60
2018-11-26T14:32:45.402Z,55.60
2018-11-26T14:35:13.843Z,55.40
2018-11-26T14:37:42.685Z,55.30
2018-11-26T14:40:29.225Z,55.10
2018-11-26T14:42:57.518Z,55.80
2018-11-26T14:45:25.874Z,56.40
2018-11-26T14:47:54.210Z,55.80
2018-11-26T14:50:22.657Z,56.00
2018-11-26T14:52:51.114Z,56.40
2018-11-26T14:55:25.781Z,56.30
2018-11-26T14:57:54.141Z,56.00
2018-11-26T15:00:22.720Z,55.70
2018-11-26T15:02:51.145Z,55.30
2018-11-26T15:05:19.592Z,56.30
2018-11-26T15:07:48.071Z,56.10
2018-11-26T15:10:17.807Z,57.20
2018-11-26T15:12:46.474Z,57.40
2018-11-26T15:15:16.107Z,57.10
2018-11-26T15:17:45.159Z,57.50
2018-11-26T15:20:15.930Z,57.60
2018-11-26T15:22:44.331Z,57.60
2018-11-26T15:25:17.350Z,57.50
2018-11-26T15:27:45.698Z,57.20
2018-11-26T15:30:16.183Z,57.00
2018-11-26T15:32:44.732Z,57.10
2018-11-26T15:35:14.361Z,57.00
2018-11-26T15:37:42.766Z,57.20
2018-11-26T15:40:12.462Z,57.30
2018-11-26T15:42:40.820Z,57.40
2018-11-26T15:45:15.458Z,57.00
2018-11-26T15:47:43.797Z,57.70
2018-11-26T15:50:12.177Z,57.30
2018-11-26T15:52:40.759Z,57.20
2018-11-26T15:55:11.707Z,56.90
2018-11-26T15:57:41.230Z,57.00
2018-11-26T16:00:25.139Z,57.10
2018-11-26T16:02:53.931Z,57.00
2018-11-26T16:05:25.197Z,57.40
2018-11-26T16:07:54.837Z,57.40
2018-11-26T16:10:23.241Z,56.90
2018-11-26T16:12:53.973Z,57.10
2018-11-26T16:15:25.854Z,57.10
2018-11-26T16:17:55.745Z,57.30
2018-11-26T16:20:25.561Z,57.40
2018-11-26T16:22:54.229Z,57.30
2018-11-26T16:25:23.529Z,57.40
2018-11-26T16:27:51.959Z,57.30
2018-11-26T16:30:20.344Z,56.90
2018-11-26T16:32:51.806Z,57.00
2018-11-26T16:35:22.334Z,57.50
2018-11-26T16:37:51.687Z,57.00
2018-11-26T16:40:20.581Z,56.90
2018-11-26T16:42:49.096Z,56.90
2018-11-26T16:45:20.541Z,57.00
2018-11-26T16:47:50.878Z,56.70
2018-11-26T16:50:21.979Z,56.90
2018-11-26T16:52:51.739Z,57.20
2018-11-26T16:55:19.916Z,56.80
2018-11-26T16:57:48.618Z,57.40
2018-11-26T17:00:20.414Z,56.80
2018-11-26T17:02:50.698Z,56.80
2018-11-26T17:05:23.528Z,56.90
2018-11-26T17:07:52.592Z,57.10
2018-11-26T17:10:22.186Z,57.00
2018-11-26T17:12:50.873Z,57.30
2018-11-26T17:15:19.802Z,57.30
2018-11-26T17:17:48.458Z,57.20
2018-11-26T17:20:18.255Z,57.30
2018-11-26T17:22:47.977Z,57.40
2018-11-26T17:25:17.513Z,57.50
2018-11-26T17:27:46.167Z,57.20
2018-11-26T17:30:19.917Z,57.20
2018-11-26T17:32:52.746Z,57.20
2018-11-26T17:35:21.285Z,57.50
2018-11-26T17:37:49.710Z,57.50
2018-11-26T17:40:20.437Z,57.40
2018-11-26T17:42:49.571Z,57.50
2018-11-26T17:45:18.463Z,57.50
2018-11-26T17:47:49.019Z,57.60
2018-11-26T17:50:22.103Z,58.00
2018-11-26T17:52:50.428Z,58.10
2018-11-26T17:55:18.953Z,57.90
2018-11-26T17:57:47.691Z,57.90
2018-11-26T18:00:25.686Z,57.90
2018-11-26T18:02:54.003Z,58.50
2018-11-26T18:05:23.958Z,58.10
2018-11-26T18:07:56.284Z,58.20
2018-11-26T18:10:24.811Z,58.20
2018-11-26T18:12:53.164Z,58.10
2018-11-26T18:15:21.556Z,58.10
2018-11-26T18:17:50.366Z,58.10
2018-11-26T18:20:20.269Z,58.20
2018-11-26T18:22:50.716Z,58.50
2018-11-26T18:25:19.768Z,58.20
2018-11-26T18:27:53.040Z,58.20
2018-11-26T18:30:27.530Z,58.20
2018-11-26T18:32:55.852Z,58.30
2018-11-26T18:35:24.287Z,58.30
2018-11-26T18:37:52.753Z,58.30
2018-11-26T18:40:21.150Z,58.40
2018-11-26T18:42:49.909Z,58.40
2018-11-26T18:45:18.831Z,58.60
2018-11-26T18:47:48.087Z,58.70
2018-11-26T18:50:18.731Z,58.80
2018-11-26T18:52:48.612Z,58.90
2018-11-26T18:55:17.741Z,59.10
2018-11-26T18:57:46.811Z,59.00
2018-11-26T19:00:27.050Z,58.90
2018-11-26T19:02:56.710Z,58.80
2018-11-26T19:05:25.274Z,59.00
2018-11-26T19:07:53.777Z,58.90
2018-11-26T19:10:28.417Z,59.00
2018-11-26T19:13:04.807Z,59.20
2018-11-26T19:15:36.136Z,59.10
2018-11-26T19:18:14.331Z,59.10
2018-11-26T19:20:43.075Z,59.20
2018-11-26T19:23:11.536Z,59.30
2018-11-26T19:25:40.552Z,59.20
2018-11-26T19:28:09.125Z,59.40
2018-11-26T19:30:37.834Z,59.30
2018-11-26T19:33:08.118Z,59.40
2018-11-26T19:35:36.659Z,59.50
2018-11-26T19:38:05.814Z,59.60
2018-11-26T19:40:34.755Z,59.70
2018-11-26T19:43:03.218Z,59.80
2018-11-26T19:45:32.335Z,59.90
2018-11-26T19:48:00.780Z,60.00
2018-11-26T19:50:30.198Z,60.50
2018-11-26T19:52:58.136Z,60.30
2018-11-26T19:55:27.161Z,60.50
2018-11-26T19:57:57.377Z,60.70
2018-11-26T20:00:26.877Z,61.40
2018-11-26T20:03:02.976Z,60.70
2018-11-26T20:05:39.112Z,60.70
2018-11-26T20:08:09.324Z,60.90
2018-11-26T20:10:37.808Z,61.00
2018-11-26T20:13:06.604Z,60.80
2018-11-26T20:15:35.089Z,60.80
2018-11-26T20:18:03.727Z,60.70
2018-11-26T20:20:32.745Z,60.70
2018-11-26T20:23:01.194Z,60.70
2018-11-26T20:25:30.390Z,60.80
2018-11-26T20:27:58.837Z,60.60
2018-11-26T20:30:27.190Z,60.50
2018-11-26T20:32:55.617Z,60.60
2018-11-26T20:35:24.028Z,60.40
2018-11-26T20:37:54.169Z,60.40
2018-11-26T20:40:22.677Z,60.30
2018-11-26T20:42:52.809Z,60.40
2018-11-26T20:45:21.975Z,60.20
2018-11-26T20:47:52.433Z,60.40
2018-11-26T20:50:23.350Z,60.60
2018-11-26T20:52:52.262Z,60.60
2018-11-26T20:55:22.273Z,60.60
2018-11-26T20:57:52.814Z,60.90
2018-11-26T21:00:24.361Z,60.50
2018-11-26T21:02:54.102Z,61.00
2018-11-26T21:05:22.701Z,60.70
2018-11-26T21:07:51.057Z,60.60
2018-11-26T21:10:19.608Z,60.70
2018-11-26T21:12:49.120Z,60.50
2018-11-26T21:15:20.791Z,60.40
2018-11-26T21:17:51.344Z,60.40
2018-11-26T21:20:26.326Z,60.50
2018-11-26T21:22:55.549Z,60.40
2018-11-26T21:25:24.050Z,60.20
2018-11-26T21:27:52.618Z,60.20
2018-11-26T21:30:21.189Z,60.10
2018-11-26T21:32:50.061Z,59.90
2018-11-26T21:35:19.580Z,60.00
2018-11-26T21:37:50.826Z,60.00
2018-11-26T21:40:20.872Z,59.90
2018-11-26T21:42:50.619Z,59.90
2018-11-26T21:45:24.346Z,59.80
2018-11-26T21:47:52.719Z,60.00
2018-11-26T21:50:21.125Z,59.80
2018-11-26T21:52:49.594Z,60.10
2018-11-26T21:55:18.517Z,59.80
2018-11-26T21:57:46.893Z,59.80
2018-11-26T22:00:20.558Z,60.00
2018-11-26T22:02:49.048Z,59.90
2018-11-26T22:05:17.873Z,60.10
2018-11-26T22:07:46.261Z,59.80
2018-11-26T22:10:15.981Z,59.70
2018-11-26T22:12:47.025Z,59.80
2018-11-26T22:15:15.469Z,60.10
2018-11-26T22:17:43.970Z,60.40
2018-11-26T22:20:14.870Z,60.30
2018-11-26T22:22:43.543Z,60.60
2018-11-26T22:25:13.573Z,61.30
2018-11-26T22:27:42.786Z,60.60
2018-11-26T22:30:14.555Z,60.40
2018-11-26T22:32:43.431Z,61.00
2018-11-26T22:35:12.606Z,60.20
2018-11-26T22:37:41.154Z,60.70
2018-11-26T22:40:12.920Z,60.00
2018-11-26T22:42:42.236Z,60.00
2018-11-26T22:45:19.767Z,60.00
2018-11-26T22:47:54.951Z,60.20
2018-11-26T22:50:23.873Z,60.40
2018-11-26T22:52:52.387Z,60.30
2018-11-26T22:55:20.794Z,60.20
2018-11-26T22:57:50.679Z,60.10
2018-11-26T23:00:54.787Z,59.90
2018-11-26T23:03:26.844Z,59.80
2018-11-26T23:05:55.186Z,59.80
2018-11-26T23:08:23.502Z,60.00
2018-11-26T23:10:52.091Z,60.10
2018-11-26T23:13:20.615Z,60.10
2018-11-26T23:15:49.106Z,60.00
2018-11-26T23:18:17.576Z,59.90
2018-11-26T23:20:46.630Z,60.00
2018-11-26T23:23:15.109Z,59.90
2018-11-26T23:25:43.480Z,59.80
2018-11-26T23:28:11.932Z,59.80
2018-11-26T23:30:40.576Z,59.90
2018-11-26T23:33:09.232Z,59.40
2018-11-26T23:35:37.718Z,59.30
2018-11-26T23:38:06.202Z,59.10
2018-11-26T23:40:35.323Z,59.20
2018-11-26T23:43:03.736Z,59.10
2018-11-26T23:45:32.134Z,59.10
2018-11-26T23:48:00.620Z,59.30
2018-11-26T23:50:28.993Z,59.40
2018-11-26T23:52:57.366Z,59.30
2018-11-26T23:55:26.765Z,59.40
2018-11-26T23:57:55.144Z,59.30
